PN36 weather

Rayne Airport
Home, Pennsylvania, United States

Public forecast

Using degrees Fahrenheit for public forecast. Weather courtesy of forecast.io.

METAR (pilot weather report)

Closest report is Indiana County/Jimmy Stewart Fld/ Airport, 6.3 nm (11.7 km) SSW. Retrieved 2019/07/20 15:35 UTC (9 minutes ago):

KIDI 201535Z AUTO 29006KT 10SM CLR 29/23 A2998 RMK A01

TAF (pilot weather forecast)

Closest forecast is John Murtha Johnstown Cambria County Airport, 27.2 nm (50.4 km) SSE. Retrieved 2019/07/20 12:39 UTC (3 hours ago):

TAF KJST 201136Z 2012/2112 26008KT P6SM SCT030 FM201700 27008G15KT P6SM BKN040 FM210200 25006KT P6SM SCT035 FM211100 26005KT 5SM BR SKC